createdAt,value
2023-04-01T00:02:03.363Z,3.43
2023-04-01T00:04:49.329Z,3.40
2023-04-01T00:07:30.797Z,3.47
2023-04-01T00:10:27.501Z,3.07
2023-04-01T00:12:59.067Z,2.93
2023-04-01T00:15:32.600Z,2.93
2023-04-01T00:18:19.928Z,2.50
2023-04-01T00:20:49.848Z,2.40
2023-04-01T00:23:20.826Z,3.27
2023-04-01T00:25:49.205Z,2.17
2023-04-01T00:28:23.735Z,2.90
2023-04-01T00:30:51.110Z,1.90
2023-04-01T00:33:18.570Z,1.93
2023-04-01T00:35:46.150Z,2.27
2023-04-01T00:38:13.282Z,2.07
2023-04-01T00:40:42.333Z,2.73
2023-04-01T00:43:19.284Z,2.73
2023-04-01T00:45:50.398Z,2.30
2023-04-01T00:48:24.886Z,2.43
2023-04-01T00:50:59.542Z,2.47
2023-04-01T00:53:31.718Z,2.30
2023-04-01T00:56:02.743Z,2.20
2023-04-01T00:58:37.858Z,2.60
2023-04-01T01:01:05.487Z,2.30
2023-04-01T01:03:32.709Z,2.43
2023-04-01T01:06:04.330Z,2.53
2023-04-01T01:08:32.165Z,2.30
2023-04-01T01:11:02.436Z,2.90
2023-04-01T01:13:41.882Z,2.47
2023-04-01T01:16:20.410Z,2.23
2023-04-01T01:18:57.367Z,3.10
2023-04-01T01:21:34.852Z,1.90
2023-04-01T01:24:10.292Z,1.93
2023-04-01T01:27:12.952Z,2.00
2023-04-01T01:29:59.855Z,1.90
2023-04-01T01:32:55.005Z,1.80
2023-04-01T01:35:30.767Z,2.00
2023-04-01T01:38:06.162Z,2.00
2023-04-01T01:40:36.440Z,2.07
2023-04-01T01:43:20.876Z,1.70
2023-04-01T01:45:56.571Z,1.60
2023-04-01T01:48:26.300Z,1.60
2023-04-01T01:50:59.794Z,2.40
2023-04-01T01:53:30.532Z,1.80
2023-04-01T01:56:03.133Z,1.27
2023-04-01T01:58:42.197Z,1.97
2023-04-01T02:01:20.219Z,1.70
2023-04-01T02:03:51.774Z,1.87
2023-04-01T02:06:30.792Z,1.70
2023-04-01T02:09:06.367Z,1.40
2023-04-01T02:11:44.175Z,1.40
2023-04-01T02:14:21.792Z,1.70
2023-04-01T02:17:04.673Z,1.77
2023-04-01T02:19:38.613Z,1.80
2023-04-01T02:22:17.026Z,1.30
2023-04-01T02:24:50.102Z,1.83
2023-04-01T02:27:23.733Z,1.70
2023-04-01T02:29:51.564Z,1.60
2023-04-01T02:32:30.769Z,1.50
2023-04-01T02:35:01.377Z,1.33
2023-04-01T02:37:28.332Z,1.53
2023-04-01T02:40:07.436Z,1.50
2023-04-01T02:42:43.537Z,1.40
2023-04-01T02:45:13.212Z,1.60
2023-04-01T02:47:43.637Z,1.30
2023-04-01T02:50:15.333Z,1.33
2023-04-01T02:52:45.086Z,1.43
2023-04-01T02:55:16.343Z,1.43
2023-04-01T02:57:43.238Z,1.33
2023-04-01T03:00:32.009Z,1.87
2023-04-01T03:02:59.194Z,1.47
2023-04-01T03:05:35.097Z,1.00
2023-04-01T03:08:04.743Z,1.33
2023-04-01T03:10:31.483Z,1.40
2023-04-01T03:12:58.608Z,1.50
2023-04-01T03:15:28.877Z,1.13
2023-04-01T03:17:56.076Z,1.43
2023-04-01T03:20:23.352Z,1.70
2023-04-01T03:22:51.172Z,1.50
2023-04-01T03:25:21.431Z,1.33
2023-04-01T03:27:48.211Z,1.47
2023-04-01T03:30:15.567Z,1.37
2023-04-01T03:32:49.788Z,1.83
2023-04-01T03:35:17.155Z,1.50
2023-04-01T03:37:48.752Z,1.60
2023-04-01T03:40:15.782Z,1.50
2023-04-01T03:42:45.888Z,1.70
2023-04-01T03:45:16.326Z,1.70
2023-04-01T03:47:43.805Z,1.57
2023-04-01T03:50:13.089Z,1.60
2023-04-01T03:52:41.812Z,1.77
2023-04-01T03:55:16.713Z,1.97
2023-04-01T03:57:55.699Z,1.57
2023-04-01T04:00:41.825Z,1.40
2023-04-01T04:03:13.501Z,1.30
2023-04-01T04:05:50.259Z,2.03
2023-04-01T04:08:20.453Z,1.80
2023-04-01T04:10:49.412Z,1.73
2023-04-01T04:13:16.511Z,1.50
2023-04-01T04:15:50.279Z,1.60
2023-04-01T04:18:21.342Z,1.67
2023-04-01T04:20:52.284Z,1.60
2023-04-01T04:23:21.738Z,1.57
2023-04-01T04:26:15.207Z,1.40
2023-04-01T04:29:00.870Z,1.27
2023-04-01T04:31:37.498Z,1.40
2023-04-01T04:34:10.308Z,1.27
2023-04-01T04:36:39.319Z,1.17
2023-04-01T04:39:09.074Z,1.50
2023-04-01T04:41:39.351Z,1.30
2023-04-01T04:44:09.402Z,1.37
2023-04-01T04:46:47.346Z,1.10
2023-04-01T04:49:20.869Z,1.30
2023-04-01T04:51:51.534Z,1.20
2023-04-01T04:54:31.103Z,1.33
2023-04-01T04:57:00.624Z,1.17
2023-04-01T04:59:34.944Z,1.13
2023-04-01T05:02:14.551Z,1.10
2023-04-01T05:04:41.853Z,1.27
2023-04-01T05:07:11.224Z,0.93
2023-04-01T05:09:50.434Z,1.20
2023-04-01T05:12:26.139Z,1.60
2023-04-01T05:14:59.611Z,1.20
2023-04-01T05:17:39.974Z,1.20
2023-04-01T05:20:16.685Z,1.30
2023-04-01T05:22:54.715Z,1.40
2023-04-01T05:25:26.091Z,1.40
2023-04-01T05:27:59.161Z,1.70
2023-04-01T05:30:31.703Z,1.50
2023-04-01T05:33:04.000Z,1.07
2023-04-01T05:35:37.658Z,1.00
2023-04-01T05:38:14.782Z,1.00
2023-04-01T05:40:48.467Z,1.00
2023-04-01T05:43:30.156Z,0.93
2023-04-01T05:46:09.163Z,1.10
2023-04-01T05:48:50.491Z,1.30
2023-04-01T05:51:20.863Z,1.00
2023-04-01T05:53:50.490Z,0.80
2023-04-01T05:56:26.399Z,1.00
2023-04-01T05:59:01.987Z,1.00
2023-04-01T06:01:29.538Z,1.20
2023-04-01T06:03:56.501Z,0.83
2023-04-01T06:06:29.813Z,1.27
2023-04-01T06:09:13.411Z,1.50
2023-04-01T06:11:47.794Z,1.20
2023-04-01T06:14:29.006Z,1.20
2023-04-01T06:17:02.807Z,1.03
2023-04-01T06:19:41.074Z,0.87
2023-04-01T06:22:16.186Z,1.70
2023-04-01T06:24:54.700Z,1.10
2023-04-01T06:27:21.450Z,0.90
2023-04-01T06:29:53.251Z,1.20
2023-04-01T06:32:20.023Z,1.00
2023-04-01T06:35:07.953Z,0.97
2023-04-01T06:37:41.578Z,1.00
2023-04-01T06:40:31.120Z,1.17
2023-04-01T06:43:05.345Z,1.20
2023-04-01T06:46:00.097Z,1.47
2023-04-01T06:49:01.809Z,1.67
2023-04-01T06:51:47.173Z,0.97
2023-04-01T06:54:41.982Z,1.40
2023-04-01T06:57:41.023Z,1.10
2023-04-01T07:03:32.106Z,1.10
2023-04-01T07:05:59.570Z,1.10
2023-04-01T07:08:27.796Z,0.93
2023-04-01T07:11:05.494Z,1.00
2023-04-01T07:13:56.167Z,1.10
2023-04-01T07:16:33.497Z,1.10
2023-04-01T07:19:06.932Z,0.80
2023-04-01T07:22:02.412Z,1.20
2023-04-01T07:24:44.042Z,1.97
2023-04-01T07:27:12.531Z,0.90
2023-04-01T07:29:40.775Z,1.23
2023-04-01T07:32:16.996Z,1.20
2023-04-01T07:35:03.612Z,1.63
2023-04-01T07:37:40.940Z,1.23
2023-04-01T07:40:26.806Z,1.03
2023-04-01T07:42:59.916Z,0.90
2023-04-01T07:45:43.786Z,0.90
2023-04-01T07:48:13.838Z,1.00
2023-04-01T07:50:47.177Z,0.90
2023-04-01T07:53:34.682Z,1.17
2023-04-01T07:56:12.818Z,0.90
2023-04-01T07:58:48.107Z,1.00
2023-04-01T08:01:37.921Z,1.10
2023-04-01T08:04:04.974Z,1.30
2023-04-01T08:06:44.040Z,0.90
2023-04-01T08:09:23.723Z,0.90
2023-04-01T08:12:20.642Z,1.10
2023-04-01T08:15:02.193Z,1.00
2023-04-01T08:18:08.881Z,1.33
2023-04-01T08:20:54.761Z,1.43
2023-04-01T08:23:34.918Z,1.10
2023-04-01T08:26:19.019Z,1.30
2023-04-01T08:28:52.382Z,1.10
2023-04-01T08:31:33.891Z,1.43
2023-04-01T08:34:01.093Z,1.50
2023-04-01T08:36:30.774Z,1.00
2023-04-01T08:39:18.832Z,1.30
2023-04-01T08:42:00.839Z,2.10
2023-04-01T08:44:30.124Z,1.57
2023-04-01T08:47:13.293Z,1.90
2023-04-01T08:49:58.852Z,1.27
2023-04-01T08:53:04.576Z,1.40
2023-04-01T08:55:38.524Z,1.17
2023-04-01T08:58:36.387Z,2.00
2023-04-01T09:01:18.517Z,1.17
2023-04-01T09:04:07.819Z,1.50
2023-04-01T09:07:00.655Z,1.00
2023-04-01T09:09:57.847Z,1.80
2023-04-01T09:12:27.597Z,1.70
2023-04-01T09:15:13.150Z,2.80
2023-04-01T09:17:46.200Z,1.30
2023-04-01T09:20:22.216Z,1.70
2023-04-01T09:22:58.646Z,1.80
2023-04-01T09:25:39.723Z,1.40
2023-04-01T09:28:19.725Z,1.10
2023-04-01T09:30:49.746Z,1.10
2023-04-01T09:33:22.536Z,1.30
2023-04-01T09:35:50.336Z,1.47
2023-04-01T09:38:22.110Z,1.73
2023-04-01T09:40:49.391Z,1.03
2023-04-01T09:43:28.969Z,1.60
2023-04-01T09:46:04.465Z,1.20
2023-04-01T09:48:31.490Z,1.40
2023-04-01T09:51:13.267Z,1.13
2023-04-01T09:53:56.356Z,0.97
2023-04-01T09:56:34.518Z,0.83
2023-04-01T09:59:09.636Z,0.90
2023-04-01T10:01:53.924Z,1.00
2023-04-01T10:04:42.960Z,0.73
2023-04-01T10:07:28.609Z,1.13
2023-04-01T10:10:13.871Z,1.20
2023-04-01T10:12:50.933Z,1.00
2023-04-01T10:15:31.049Z,1.10
2023-04-01T10:18:25.007Z,1.50
2023-04-01T10:20:57.792Z,1.30
2023-04-01T10:23:57.115Z,1.13
2023-04-01T10:27:04.907Z,1.50
2023-04-01T10:30:00.375Z,1.20
2023-04-01T10:32:43.529Z,1.07
2023-04-01T10:35:26.084Z,1.03
2023-04-01T10:38:07.168Z,1.00
2023-04-01T10:40:44.049Z,1.90
2023-04-01T10:43:48.927Z,0.87
2023-04-01T10:46:34.979Z,1.00
2023-04-01T10:49:28.746Z,0.80
2023-04-01T10:52:08.084Z,0.90
2023-04-01T10:55:09.395Z,0.87
2023-04-01T10:58:27.166Z,1.30
2023-04-01T11:02:00.766Z,1.43
2023-04-01T11:09:03.645Z,0.60
2023-04-01T11:11:50.572Z,0.83
2023-04-01T11:14:18.223Z,0.53
2023-04-01T11:16:52.979Z,0.50
2023-04-01T11:19:30.731Z,0.50
2023-04-01T11:22:14.903Z,0.80
2023-04-01T11:25:26.986Z,0.50
2023-04-01T11:28:53.834Z,0.87
2023-04-01T11:31:46.603Z,1.40
2023-04-01T11:34:26.856Z,0.93
2023-04-01T11:37:50.764Z,1.53
2023-04-01T11:45:16.557Z,2.57
2023-04-01T11:47:58.136Z,1.50
2023-04-01T11:50:38.937Z,1.50
2023-04-01T11:53:07.034Z,0.80
2023-04-01T11:55:40.004Z,6.83
2023-04-01T11:58:14.026Z,3.90
2023-04-01T12:00:58.618Z,4.00
2023-04-01T12:03:31.255Z,0.80
2023-04-01T12:06:00.801Z,2.17
2023-04-01T12:08:30.634Z,2.60
2023-04-01T12:11:17.210Z,0.70
2023-04-01T12:13:48.940Z,2.00
2023-04-01T12:16:41.026Z,3.40
2023-04-01T12:19:16.623Z,0.80
2023-04-01T12:21:47.429Z,0.50
2023-04-01T12:24:28.882Z,1.23
2023-04-01T12:27:13.650Z,0.70
2023-04-01T12:29:55.679Z,0.53
2023-04-01T12:32:22.563Z,0.60
2023-04-01T12:35:01.870Z,0.60
2023-04-01T12:37:37.580Z,0.60
2023-04-01T12:40:04.359Z,0.60
2023-04-01T12:42:40.173Z,0.60
2023-04-01T12:45:25.108Z,0.50
2023-04-01T12:48:11.209Z,0.60
2023-04-01T12:51:11.197Z,0.60
2023-04-01T12:53:37.586Z,0.70
2023-04-01T12:56:05.140Z,0.53
2023-04-01T12:58:41.052Z,0.57
2023-04-01T13:01:26.511Z,0.50
2023-04-01T13:07:11.902Z,0.60
2023-04-01T13:09:51.430Z,0.60
2023-04-01T13:12:34.187Z,0.60
2023-04-01T13:15:11.536Z,0.60
2023-04-01T13:17:43.051Z,0.60
2023-04-01T13:20:19.450Z,0.60
2023-04-01T13:22:57.906Z,0.50
2023-04-01T13:25:35.137Z,0.70
2023-04-01T13:28:12.625Z,0.60
2023-04-01T13:33:51.058Z,0.60
2023-04-01T13:36:37.960Z,0.70
2023-04-01T13:39:04.737Z,0.70
2023-04-01T13:41:41.315Z,0.60
2023-04-01T13:44:31.364Z,0.70
2023-04-01T13:47:07.265Z,0.50
2023-04-01T13:49:48.189Z,0.50
2023-04-01T13:52:33.453Z,0.63
2023-04-01T13:55:20.427Z,0.70
2023-04-01T13:58:07.361Z,0.50
2023-04-01T14:00:40.183Z,0.60
2023-04-01T14:03:30.509Z,0.57
2023-04-01T14:05:56.940Z,0.50
2023-04-01T14:08:44.784Z,0.50
2023-04-01T14:11:17.958Z,0.50
2023-04-01T14:13:53.517Z,0.60
2023-04-01T14:16:26.782Z,0.60
2023-04-01T14:19:00.984Z,0.50
2023-04-01T14:21:30.170Z,0.50
2023-04-01T14:24:22.465Z,0.50
2023-04-01T14:27:25.836Z,0.60
2023-04-01T14:32:58.325Z,0.60
2023-04-01T14:35:31.292Z,0.60
2023-04-01T14:38:03.280Z,0.70
2023-04-01T14:41:12.767Z,0.70
2023-04-01T14:43:47.788Z,0.97
2023-04-01T14:46:20.733Z,0.50
2023-04-01T14:49:02.471Z,0.60
2023-04-01T14:51:32.060Z,0.60
2023-04-01T14:54:02.307Z,0.60
2023-04-01T14:56:40.944Z,0.60
2023-04-01T14:59:09.884Z,0.70
2023-04-01T15:01:49.160Z,0.70
2023-04-01T15:04:23.997Z,0.90
2023-04-01T15:07:02.732Z,0.70
2023-04-01T15:09:47.894Z,0.70
2023-04-01T15:12:19.505Z,0.73
2023-04-01T15:15:05.633Z,0.70
2023-04-01T15:17:35.204Z,1.00
2023-04-01T15:20:16.652Z,1.00
2023-04-01T15:22:48.995Z,0.70
2023-04-01T15:25:28.997Z,0.73
2023-04-01T15:28:04.325Z,0.60
2023-04-01T15:30:35.236Z,0.70
2023-04-01T15:33:18.646Z,0.93
2023-04-01T15:35:56.845Z,1.20
2023-04-01T15:38:41.996Z,0.80
2023-04-01T15:41:08.394Z,2.60
2023-04-01T15:43:43.386Z,0.70
2023-04-01T15:46:20.494Z,0.93
2023-04-01T15:48:57.242Z,0.93
2023-04-01T15:51:31.271Z,1.80
2023-04-01T15:54:16.633Z,1.10
2023-04-01T15:56:49.223Z,0.90
2023-04-01T15:59:34.591Z,3.40
2023-04-01T16:02:08.548Z,1.50
2023-04-01T16:04:53.785Z,0.70
2023-04-01T16:07:31.498Z,0.70
2023-04-01T16:10:06.980Z,0.90
2023-04-01T16:12:52.185Z,0.83
2023-04-01T16:15:37.238Z,0.70
2023-04-01T16:18:14.577Z,0.80
2023-04-01T16:20:53.280Z,0.97
2023-04-01T16:23:24.433Z,1.10
2023-04-01T16:26:14.056Z,0.90
2023-04-01T16:28:44.119Z,1.00
2023-04-01T16:31:14.864Z,0.80
2023-04-01T16:33:41.350Z,0.80
2023-04-01T16:36:16.683Z,0.70
2023-04-01T16:38:47.629Z,0.97
2023-04-01T16:41:18.252Z,0.90
2023-04-01T16:43:49.401Z,0.97
2023-04-01T16:46:36.447Z,0.90
2023-04-01T16:49:11.791Z,1.43
2023-04-01T16:51:38.177Z,0.90
2023-04-01T16:54:23.422Z,0.80
2023-04-01T16:56:54.832Z,1.07
2023-04-01T16:59:38.550Z,1.33
2023-04-01T17:02:05.290Z,0.90
2023-04-01T17:04:33.455Z,1.00
2023-04-01T17:07:06.540Z,0.83
2023-04-01T17:09:41.240Z,0.90
2023-04-01T17:12:12.451Z,0.90
2023-04-01T17:14:38.981Z,1.00
2023-04-01T17:17:25.649Z,1.00
2023-04-01T17:19:52.592Z,1.10
2023-04-01T17:22:37.644Z,1.07
2023-04-01T17:25:16.190Z,1.37
2023-04-01T17:27:50.180Z,1.07
2023-04-01T17:30:30.090Z,1.77
2023-04-01T17:33:03.480Z,1.17
2023-04-01T17:35:33.885Z,1.10
2023-04-01T17:38:07.165Z,1.40
2023-04-01T17:40:36.405Z,1.87
2023-04-01T17:43:13.424Z,1.43
2023-04-01T17:46:06.836Z,1.50
2023-04-01T17:48:47.030Z,1.30
2023-04-01T17:51:19.988Z,1.20
2023-04-01T17:53:51.864Z,1.40
2023-04-01T17:56:23.336Z,1.70
2023-04-01T17:59:08.508Z,1.30
2023-04-01T18:01:38.451Z,1.33
2023-04-01T18:04:04.941Z,1.30
2023-04-01T18:06:39.687Z,1.80
2023-04-01T18:09:15.429Z,1.90
2023-04-01T18:11:42.260Z,1.60
2023-04-01T18:14:18.615Z,2.17
2023-04-01T18:16:45.264Z,2.03
2023-04-01T18:19:28.618Z,2.10
2023-04-01T18:21:57.306Z,2.10
2023-04-01T18:24:34.290Z,1.73
2023-04-01T18:27:08.149Z,1.90
2023-04-01T18:29:52.514Z,2.20
2023-04-01T18:32:19.636Z,1.73
2023-04-01T18:35:05.448Z,1.80
2023-04-01T18:37:39.933Z,2.13
2023-04-01T18:40:26.438Z,2.00
2023-04-01T18:43:16.126Z,2.03
2023-04-01T18:45:52.979Z,1.73
2023-04-01T18:48:28.479Z,2.30
2023-04-01T18:50:57.651Z,1.93
2023-04-01T18:53:30.706Z,2.17
2023-04-01T18:56:00.177Z,1.97
2023-04-01T18:58:29.676Z,2.10
2023-04-01T19:01:06.074Z,1.87
2023-04-01T19:03:42.031Z,2.30
2023-04-01T19:06:17.970Z,3.00
2023-04-01T19:08:45.126Z,2.20
2023-04-01T19:11:33.208Z,3.03
2023-04-01T19:14:27.637Z,1.70
2023-04-01T19:17:14.307Z,2.50
2023-04-01T19:19:45.617Z,2.13
2023-04-01T19:22:20.863Z,2.03
2023-04-01T19:25:07.741Z,1.90
2023-04-01T19:27:47.699Z,2.37
2023-04-01T19:30:17.089Z,2.20
2023-04-01T19:33:02.479Z,2.20
2023-04-01T19:35:42.882Z,1.93
2023-04-01T19:38:31.355Z,2.33
2023-04-01T19:41:06.707Z,2.27
2023-04-01T19:43:33.133Z,3.10
2023-04-01T19:46:17.542Z,2.33
2023-04-01T19:49:05.203Z,2.40
2023-04-01T19:51:54.060Z,2.97
2023-04-01T19:54:34.121Z,3.13
2023-04-01T19:57:20.679Z,2.57
2023-04-01T20:00:02.966Z,2.57
2023-04-01T20:02:54.368Z,2.87
2023-04-01T20:05:26.727Z,3.37
2023-04-01T20:07:56.446Z,2.87
2023-04-01T20:10:31.340Z,3.47
2023-04-01T20:13:07.579Z,3.10
2023-04-01T20:15:38.642Z,3.70
2023-04-01T20:18:25.735Z,3.70
2023-04-01T20:20:55.373Z,3.33
2023-04-01T20:23:27.427Z,3.73
2023-04-01T20:25:57.381Z,3.10
2023-04-01T20:28:31.297Z,4.07
2023-04-01T20:31:16.529Z,4.60
2023-04-01T20:34:09.178Z,3.50
2023-04-01T20:36:54.528Z,4.03
2023-04-01T20:39:20.950Z,4.20
2023-04-01T20:41:58.473Z,4.37
2023-04-01T20:44:43.502Z,3.70
2023-04-01T20:47:28.042Z,4.03
2023-04-01T20:50:00.257Z,3.57
2023-04-01T20:52:33.151Z,4.23
2023-04-01T20:55:19.860Z,3.30
2023-04-01T20:57:54.938Z,3.47
2023-04-01T21:00:40.041Z,2.70
2023-04-01T21:03:23.912Z,3.90
2023-04-01T21:06:08.896Z,3.50
2023-04-01T21:08:48.867Z,2.80
2023-04-01T21:11:19.296Z,3.80
2023-04-01T21:13:51.820Z,2.70
2023-04-01T21:16:33.858Z,3.17
2023-04-01T21:19:16.672Z,3.67
2023-04-01T21:21:45.925Z,3.73
2023-04-01T21:24:12.458Z,2.77
2023-04-01T21:26:48.698Z,2.87
2023-04-01T21:29:33.937Z,3.07
2023-04-01T21:32:07.919Z,3.00
2023-04-01T21:34:37.579Z,3.00
2023-04-01T21:37:26.959Z,3.20
2023-04-01T21:39:53.361Z,3.20
2023-04-01T21:42:31.370Z,3.70
2023-04-01T21:45:13.301Z,2.70
2023-04-01T21:47:45.719Z,3.20
2023-04-01T21:50:39.396Z,2.87
2023-04-01T21:53:17.567Z,3.33
2023-04-01T21:55:47.285Z,3.60
2023-04-01T21:58:32.692Z,2.60
2023-04-01T22:01:17.597Z,2.87
2023-04-01T22:03:44.146Z,2.97
2023-04-01T22:06:20.403Z,2.47
2023-04-01T22:08:52.434Z,2.63
2023-04-01T22:11:37.558Z,2.43
2023-04-01T22:14:08.355Z,2.07
2023-04-01T22:16:35.234Z,2.17
2023-04-01T22:19:07.523Z,3.27
2023-04-01T22:22:01.931Z,2.60
2023-04-01T22:24:34.210Z,2.00
2023-04-01T22:27:19.621Z,2.73
2023-04-01T22:29:53.275Z,2.00
2023-04-01T22:32:23.901Z,2.13
2023-04-01T22:34:53.434Z,2.20
2023-04-01T22:37:19.877Z,1.90
2023-04-01T22:39:55.750Z,1.67
2023-04-01T22:42:34.116Z,1.73
2023-04-01T22:45:07.039Z,1.43
2023-04-01T22:47:50.611Z,1.40
2023-04-01T22:50:22.887Z,1.67
2023-04-01T22:52:51.525Z,1.40
2023-04-01T22:55:21.226Z,1.80
2023-04-01T22:57:59.760Z,1.90
2023-04-01T23:00:28.798Z,1.70
2023-04-01T23:03:01.709Z,1.17
2023-04-01T23:05:29.632Z,1.87
2023-04-01T23:08:15.609Z,1.43
2023-04-01T23:10:43.732Z,1.33
2023-04-01T23:13:17.722Z,1.30
2023-04-01T23:15:45.757Z,1.47
2023-04-01T23:18:16.736Z,1.23
2023-04-01T23:20:53.944Z,1.33
2023-04-01T23:23:39.517Z,1.57
2023-04-01T23:26:06.376Z,1.37
2023-04-01T23:28:40.629Z,1.20
2023-04-01T23:31:26.060Z,1.50
2023-04-01T23:33:57.305Z,1.77
2023-04-01T23:36:24.758Z,1.40
2023-04-01T23:38:52.382Z,1.53
2023-04-01T23:41:21.678Z,1.43
2023-04-01T23:43:52.230Z,0.97
2023-04-01T23:46:19.312Z,1.30
2023-04-01T23:48:47.085Z,1.33
2023-04-01T23:51:19.548Z,1.30
2023-04-01T23:53:47.214Z,1.50
2023-04-01T23:56:14.492Z,1.33
2023-04-01T23:58:49.173Z,1.17
